createdAt,value
2017-08-02T00:00:18.267Z,0
2017-08-02T00:01:18.907Z,0
2017-08-02T00:02:18.320Z,0
2017-08-02T00:03:18.978Z,0
2017-08-02T00:04:19.002Z,0
2017-08-02T00:05:18.722Z,0
2017-08-02T00:06:19.052Z,0
2017-08-02T00:07:18.460Z,0
2017-08-02T00:08:18.809Z,0
2017-08-02T00:09:19.158Z,0
2017-08-02T00:10:19.183Z,0
2017-08-02T00:11:18.830Z,0
2017-08-02T00:12:19.245Z,0
2017-08-02T00:13:18.644Z,0
2017-08-02T00:14:18.974Z,0
2017-08-02T00:15:18.702Z,0
2017-08-02T00:16:18.980Z,0
2017-08-02T00:17:18.757Z,0
2017-08-02T00:18:18.790Z,0
2017-08-02T00:19:18.818Z,0
2017-08-02T00:20:19.151Z,0
2017-08-02T00:21:19.440Z,0
2017-08-02T00:22:18.909Z,0
2017-08-02T00:23:19.243Z,0
2017-08-02T00:24:19.276Z,0
2017-08-02T00:25:19.302Z,0
2017-08-02T00:26:19.895Z,0
2017-08-02T00:27:19.047Z,0
2017-08-02T00:28:19.387Z,0
2017-08-02T00:29:19.102Z,0
2017-08-02T00:30:19.162Z,0
2017-08-02T00:31:20.051Z,0
2017-08-02T00:32:19.214Z,0
2017-08-02T00:33:19.531Z,0
2017-08-02T00:34:19.866Z,0
2017-08-02T00:35:19.597Z,0
2017-08-02T00:36:19.922Z,0
2017-08-02T00:37:19.654Z,0
2017-08-02T00:38:19.357Z,0
2017-08-02T00:39:19.702Z,0
2017-08-02T00:40:19.735Z,0
2017-08-02T00:41:19.699Z,0
2017-08-02T00:42:20.113Z,0
2017-08-02T00:43:19.825Z,0
2017-08-02T00:44:19.846Z,0
2017-08-02T00:45:19.879Z,0
2017-08-02T00:46:20.163Z,0
2017-08-02T00:47:19.941Z,0
2017-08-02T00:48:19.655Z,0
2017-08-02T00:49:19.703Z,0
2017-08-02T00:50:19.712Z,0
2017-08-02T00:51:20.051Z,0
2017-08-02T00:52:20.395Z,0
2017-08-02T00:53:20.114Z,0
2017-08-02T00:54:19.827Z,0
2017-08-02T00:55:20.166Z,0
2017-08-02T00:56:19.888Z,0
2017-08-02T00:57:20.231Z,0
2017-08-02T00:58:20.253Z,0
2017-08-02T00:59:20.289Z,0
2017-08-02T01:00:20.659Z,0
2017-08-02T01:01:20.656Z,0
2017-08-02T01:02:20.694Z,0
2017-08-02T01:03:20.411Z,0
2017-08-02T01:04:20.434Z,0
2017-08-02T01:05:20.464Z,0
2017-08-02T01:06:20.173Z,0
2017-08-02T01:07:20.458Z,0
2017-08-02T01:08:20.567Z,0
2017-08-02T01:09:20.580Z,0
2017-08-02T01:10:20.916Z,0
2017-08-02T01:11:20.634Z,0
2017-08-02T01:12:20.592Z,0
2017-08-02T01:13:20.687Z,0
2017-08-02T01:14:20.405Z,0
2017-08-02T01:15:20.439Z,0
2017-08-02T01:16:20.776Z,0
2017-08-02T01:17:21.106Z,0
2017-08-02T01:18:20.834Z,0
2017-08-02T01:19:21.184Z,0
2017-08-02T01:20:20.892Z,0
2017-08-02T01:21:20.605Z,0
2017-08-02T01:22:20.893Z,0
2017-08-02T01:23:20.992Z,0
2017-08-02T01:24:21.006Z,0
2017-08-02T01:25:20.417Z,0
2017-08-02T01:26:21.065Z,0
2017-08-02T01:27:21.674Z,0
2017-08-02T01:28:21.434Z,0
2017-08-02T01:29:21.464Z,0
2017-08-02T01:30:20.871Z,0
2017-08-02T01:31:20.916Z,0
2017-08-02T01:32:21.542Z,0
2017-08-02T01:33:20.970Z,0
2017-08-02T01:34:21.608Z,0
2017-08-02T01:35:21.640Z,0
2017-08-02T01:36:21.364Z,0
2017-08-02T01:37:21.331Z,0
2017-08-02T01:38:21.411Z,0
2017-08-02T01:39:21.448Z,0
2017-08-02T01:40:21.784Z,0
2017-08-02T01:41:21.506Z,0
2017-08-02T01:42:21.834Z,0
2017-08-02T01:43:21.557Z,0
2017-08-02T01:44:21.579Z,0
2017-08-02T01:45:21.020Z,0
2017-08-02T01:46:21.365Z,0
2017-08-02T01:47:21.321Z,0
2017-08-02T01:48:21.703Z,0
2017-08-02T01:49:21.723Z,0
2017-08-02T01:50:21.757Z,0
2017-08-02T01:51:21.802Z,0
2017-08-02T01:52:21.766Z,0
2017-08-02T01:53:21.851Z,0
2017-08-02T01:54:22.195Z,0
2017-08-02T01:55:22.211Z,0
2017-08-02T01:56:21.934Z,0
2017-08-02T01:57:21.587Z,0
2017-08-02T01:58:21.998Z,0
2017-08-02T01:59:21.708Z,0
2017-08-02T02:00:22.361Z,0
2017-08-02T02:01:21.773Z,0
2017-08-02T02:02:22.410Z,0
2017-08-02T02:03:22.138Z,0
2017-08-02T02:04:22.164Z,0
2017-08-02T02:05:22.200Z,0
2017-08-02T02:06:22.222Z,0
2017-08-02T02:07:21.942Z,0
2017-08-02T02:08:22.601Z,0
2017-08-02T02:09:21.992Z,0
2017-08-02T02:10:22.336Z,0
2017-08-02T02:11:22.369Z,0
2017-08-02T02:12:22.714Z,0
2017-08-02T02:13:22.428Z,0
2017-08-02T02:14:22.467Z,0
2017-08-02T02:15:22.179Z,0
2017-08-02T02:16:22.823Z,0
2017-08-02T02:17:22.859Z,0
2017-08-02T02:18:22.583Z,0
2017-08-02T02:19:22.597Z,0
2017-08-02T02:20:22.960Z,0
2017-08-02T02:21:22.672Z,0
2017-08-02T02:22:23.006Z,0
2017-08-02T02:23:22.731Z,0
2017-08-02T02:24:22.761Z,0
2017-08-02T02:25:22.464Z,0
2017-08-02T02:26:22.807Z,0
2017-08-02T02:27:22.829Z,0
2017-08-02T02:28:23.176Z,0
2017-08-02T02:29:23.210Z,0
2017-08-02T02:30:22.606Z,0
2017-08-02T02:31:22.946Z,0
2017-08-02T02:32:22.978Z,0
2017-08-02T02:33:23.009Z,0
2017-08-02T02:34:23.361Z,0
2017-08-02T02:35:23.066Z,0
2017-08-02T02:36:23.399Z,0
2017-08-02T02:37:22.820Z,0
2017-08-02T02:38:22.849Z,0
2017-08-02T02:39:23.177Z,0
2017-08-02T02:40:23.218Z,0
2017-08-02T02:41:22.924Z,0
2017-08-02T02:42:23.267Z,0
2017-08-02T02:43:23.305Z,0
2017-08-02T02:44:23.317Z,0
2017-08-02T02:45:23.354Z,0
2017-08-02T02:46:23.695Z,0
2017-08-02T02:47:23.403Z,0
2017-08-02T02:48:23.439Z,0
2017-08-02T02:49:23.153Z,0
2017-08-02T02:50:22.884Z,0
2017-08-02T02:51:23.215Z,0
2017-08-02T02:52:23.556Z,0
2017-08-02T02:53:23.830Z,0
2017-08-02T02:54:22.989Z,0
2017-08-02T02:55:23.948Z,0
2017-08-02T02:56:23.974Z,0
2017-08-02T02:57:23.423Z,0
2017-08-02T02:58:24.029Z,0
2017-08-02T02:59:23.759Z,0
2017-08-02T03:00:23.473Z,0
2017-08-02T03:01:24.123Z,0
2017-08-02T03:02:23.832Z,0
2017-08-02T03:03:23.488Z,0
2017-08-02T03:04:24.213Z,0
2017-08-02T03:05:23.927Z,0
2017-08-02T03:06:23.954Z,0
2017-08-02T03:07:23.672Z,0
2017-08-02T03:08:24.260Z,0
2017-08-02T03:09:23.417Z,0
2017-08-02T03:10:24.059Z,0
2017-08-02T03:11:23.784Z,0
2017-08-02T03:12:24.124Z,0
2017-08-02T03:13:24.723Z,0
2017-08-02T03:14:24.498Z,0
2017-08-02T03:15:24.218Z,0
2017-08-02T03:16:24.241Z,0
2017-08-02T03:17:23.966Z,0
2017-08-02T03:18:24.544Z,0
2017-08-02T03:19:24.636Z,0
2017-08-02T03:20:24.349Z,0
2017-08-02T03:21:24.387Z,0
2017-08-02T03:22:24.412Z,0
2017-08-02T03:23:24.689Z,0
2017-08-02T03:24:24.476Z,0
2017-08-02T03:25:24.194Z,0
2017-08-02T03:26:24.531Z,0
2017-08-02T03:27:24.252Z,0
2017-08-02T03:28:24.853Z,0
2017-08-02T03:29:24.607Z,0
2017-08-02T03:30:24.344Z,0
2017-08-02T03:31:24.364Z,0
2017-08-02T03:32:24.700Z,0
2017-08-02T03:33:25.357Z,0
2017-08-02T03:34:24.453Z,0
2017-08-02T03:35:24.789Z,0
2017-08-02T03:36:25.139Z,0
2017-08-02T03:37:25.170Z,0
2017-08-02T03:38:25.141Z,0
2017-08-02T03:39:25.224Z,0
2017-08-02T03:40:24.625Z,0
2017-08-02T03:41:24.974Z,0
2017-08-02T03:42:25.293Z,0
2017-08-02T03:43:25.276Z,0
2017-08-02T03:44:25.058Z,0
2017-08-02T03:45:25.386Z,4
2017-08-02T03:46:25.420Z,4
2017-08-02T03:47:24.832Z,4
2017-08-02T03:48:25.466Z,4
2017-08-02T03:49:25.502Z,4
2017-08-02T03:50:24.911Z,8
2017-08-02T03:51:25.249Z,8
2017-08-02T03:52:24.647Z,8
2017-08-02T03:53:25.307Z,8
2017-08-02T03:54:25.031Z,8
2017-08-02T03:55:25.682Z,8
2017-08-02T03:56:25.399Z,12
2017-08-02T03:57:25.419Z,12
2017-08-02T03:58:25.705Z,12
2017-08-02T03:59:25.176Z,16
2017-08-02T04:00:25.205Z,16
2017-08-02T04:01:25.568Z,16
2017-08-02T04:02:25.884Z,20
2017-08-02T04:03:25.854Z,20
2017-08-02T04:04:25.622Z,20
2017-08-02T04:05:25.343Z,20
2017-08-02T04:06:25.367Z,24
2017-08-02T04:07:26.021Z,24
2017-08-02T04:08:25.734Z,28
2017-08-02T04:09:26.078Z,32
2017-08-02T04:10:26.111Z,28
2017-08-02T04:11:25.824Z,36
2017-08-02T04:12:26.169Z,36
2017-08-02T04:13:25.874Z,40
2017-08-02T04:14:25.602Z,40
2017-08-02T04:15:25.952Z,44
2017-08-02T04:16:25.652Z,48
2017-08-02T04:17:26.009Z,48
2017-08-02T04:18:26.338Z,56
2017-08-02T04:19:26.067Z,56
2017-08-02T04:20:26.403Z,64
2017-08-02T04:21:26.116Z,68
2017-08-02T04:22:26.141Z,76
2017-08-02T04:23:26.734Z,84
2017-08-02T04:24:26.203Z,92
2017-08-02T04:25:26.535Z,100
2017-08-02T04:26:26.248Z,104
2017-08-02T04:27:25.977Z,112
2017-08-02T04:28:25.946Z,120
2017-08-02T04:29:25.723Z,124
2017-08-02T04:30:26.064Z,136
2017-08-02T04:31:26.712Z,140
2017-08-02T04:32:26.125Z,148
2017-08-02T04:33:27.021Z,156
2017-08-02T04:34:26.798Z,160
2017-08-02T04:35:25.896Z,164
2017-08-02T04:36:26.856Z,172
2017-08-02T04:37:26.581Z,176
2017-08-02T04:38:27.214Z,188
2017-08-02T04:39:26.322Z,192
2017-08-02T04:40:26.664Z,204
2017-08-02T04:41:26.696Z,212
2017-08-02T04:42:26.717Z,228
2017-08-02T04:43:26.442Z,244
2017-08-02T04:44:26.463Z,256
2017-08-02T04:45:26.487Z,264
2017-08-02T04:46:26.845Z,288
2017-08-02T04:47:26.864Z,312
2017-08-02T04:48:27.199Z,324
2017-08-02T04:49:26.922Z,316
2017-08-02T04:50:27.247Z,332
2017-08-02T04:51:26.664Z,356
2017-08-02T04:52:27.314Z,376
2017-08-02T04:53:27.342Z,392
2017-08-02T04:54:27.403Z,400
2017-08-02T04:55:27.405Z,412
2017-08-02T04:56:26.797Z,420
2017-08-02T04:57:27.470Z,436
2017-08-02T04:58:26.862Z,460
2017-08-02T04:59:27.795Z,488
2017-08-02T05:00:27.236Z,492
2017-08-02T05:01:27.261Z,524
2017-08-02T05:02:27.296Z,568
2017-08-02T05:03:27.314Z,600
2017-08-02T05:04:27.661Z,624
2017-08-02T05:05:27.372Z,600
2017-08-02T05:06:27.728Z,632
2017-08-02T05:07:27.434Z,676
2017-08-02T05:08:27.467Z,712
2017-08-02T05:09:27.752Z,724
2017-08-02T05:10:27.524Z,704
2017-08-02T05:11:27.552Z,700
2017-08-02T05:12:27.890Z,808
2017-08-02T05:13:27.922Z,828
2017-08-02T05:14:28.247Z,792
2017-08-02T05:15:27.671Z,848
2017-08-02T05:16:27.689Z,872
2017-08-02T05:17:27.730Z,852
2017-08-02T05:18:28.067Z,704
2017-08-02T05:19:28.032Z,720
2017-08-02T05:20:27.808Z,756
2017-08-02T05:21:27.837Z,652
2017-08-02T05:22:27.568Z,604
2017-08-02T05:23:27.907Z,588
2017-08-02T05:24:27.919Z,696
2017-08-02T05:25:27.952Z,916
2017-08-02T05:26:27.673Z,844
2017-08-02T05:27:28.321Z,736
2017-08-02T05:28:28.347Z,552
2017-08-02T05:29:28.628Z,504
2017-08-02T05:30:28.101Z,516
2017-08-02T05:31:28.434Z,536
2017-08-02T05:32:28.166Z,576
2017-08-02T05:33:28.178Z,580
2017-08-02T05:34:28.159Z,596
2017-08-02T05:35:28.248Z,644
2017-08-02T05:36:28.592Z,636
2017-08-02T05:37:28.295Z,640
2017-08-02T05:38:28.327Z,616
2017-08-02T05:39:28.603Z,592
2017-08-02T05:40:28.073Z,576
2017-08-02T05:41:28.717Z,660
2017-08-02T05:42:28.442Z,604
2017-08-02T05:43:28.479Z,656
2017-08-02T05:44:28.744Z,792
2017-08-02T05:45:28.529Z,768
2017-08-02T05:46:28.870Z,680
2017-08-02T05:47:28.588Z,740
2017-08-02T05:48:28.307Z,816
2017-08-02T05:49:28.940Z,696
2017-08-02T05:50:28.989Z,840
2017-08-02T05:51:28.693Z,900
2017-08-02T05:52:28.727Z,1088
2017-08-02T05:53:28.757Z,1056
2017-08-02T05:54:29.099Z,924
2017-08-02T05:55:28.502Z,964
2017-08-02T05:56:28.842Z,932
2017-08-02T05:57:29.194Z,900
2017-08-02T05:58:28.895Z,916
2017-08-02T05:59:29.224Z,1044
2017-08-02T06:00:28.637Z,1112
2017-08-02T06:01:29.013Z,1128
2017-08-02T06:02:28.719Z,928
2017-08-02T06:03:29.044Z,988
2017-08-02T06:04:28.748Z,956
2017-08-02T06:05:29.097Z,1028
2017-08-02T06:06:28.816Z,1144
2017-08-02T06:07:29.467Z,1212
2017-08-02T06:08:28.872Z,1396
2017-08-02T06:09:29.843Z,1476
2017-08-02T06:10:29.251Z,1440
2017-08-02T06:11:29.282Z,1576
2017-08-02T06:12:29.308Z,1672
2017-08-02T06:13:29.652Z,1580
2017-08-02T06:14:29.669Z,1452
2017-08-02T06:15:29.081Z,1416
2017-08-02T06:16:29.414Z,1788
2017-08-02T06:17:29.451Z,1920
2017-08-02T06:18:29.796Z,2156
2017-08-02T06:19:30.094Z,2376
2017-08-02T06:20:29.840Z,2300
2017-08-02T06:21:28.938Z,2340
2017-08-02T06:22:29.919Z,2168
2017-08-02T06:23:29.937Z,2184
2017-08-02T06:24:29.905Z,2076
2017-08-02T06:25:29.982Z,1788
2017-08-02T06:26:30.027Z,2092
2017-08-02T06:27:29.751Z,2512
2017-08-02T06:28:30.082Z,2516
2017-08-02T06:29:30.063Z,2112
2017-08-02T06:30:29.819Z,1972
2017-08-02T06:31:29.844Z,1348
2017-08-02T06:32:29.875Z,1132
2017-08-02T06:33:30.224Z,980
2017-08-02T06:34:29.645Z,984
2017-08-02T06:35:29.980Z,988
2017-08-02T06:36:30.309Z,1004
2017-08-02T06:37:29.718Z,1000
2017-08-02T06:38:30.057Z,1128
2017-08-02T06:39:30.021Z,1560
2017-08-02T06:40:30.114Z,1560
2017-08-02T06:41:30.158Z,1384
2017-08-02T06:42:30.491Z,1360
2017-08-02T06:43:30.199Z,1300
2017-08-02T06:44:30.794Z,1452
2017-08-02T06:45:29.938Z,1548
2017-08-02T06:46:30.317Z,1816
2017-08-02T06:47:30.006Z,2084
2017-08-02T06:48:30.025Z,2184
2017-08-02T06:49:30.660Z,2404
2017-08-02T06:50:30.092Z,1904
2017-08-02T06:51:30.126Z,1568
2017-08-02T06:52:30.459Z,1704
2017-08-02T06:53:30.532Z,1884
2017-08-02T06:54:30.865Z,1940
2017-08-02T06:55:30.854Z,1700
2017-08-02T06:56:30.578Z,1720
2017-08-02T06:57:30.292Z,1708
2017-08-02T06:58:30.313Z,1564
2017-08-02T06:59:30.033Z,1908
2017-08-02T07:00:30.369Z,1620
2017-08-02T07:01:31.038Z,1792
2017-08-02T07:02:30.427Z,1320
2017-08-02T07:03:31.071Z,1532
2017-08-02T07:04:30.485Z,1140
2017-08-02T07:05:30.821Z,1096
2017-08-02T07:06:30.862Z,1104
2017-08-02T07:07:30.571Z,1052
2017-08-02T07:08:30.289Z,1064
2017-08-02T07:09:30.949Z,1060
2017-08-02T07:10:30.977Z,1144
2017-08-02T07:11:31.002Z,1156
2017-08-02T07:12:30.722Z,1328
2017-08-02T07:13:31.060Z,1440
2017-08-02T07:14:31.089Z,1512
2017-08-02T07:15:31.435Z,1508
2017-08-02T07:16:31.148Z,1420
2017-08-02T07:17:31.179Z,1256
2017-08-02T07:18:30.920Z,1092
2017-08-02T07:19:30.921Z,976
2017-08-02T07:20:30.641Z,956
2017-08-02T07:21:31.301Z,956
2017-08-02T07:22:31.631Z,920
2017-08-02T07:23:31.360Z,872
2017-08-02T07:24:31.069Z,804
2017-08-02T07:25:31.720Z,752
2017-08-02T07:26:31.446Z,748
2017-08-02T07:27:31.475Z,676
2017-08-02T07:28:31.492Z,640
2017-08-02T07:29:31.213Z,616
2017-08-02T07:30:31.885Z,576
2017-08-02T07:31:31.583Z,616
2017-08-02T07:32:31.299Z,692
2017-08-02T07:33:31.644Z,776
2017-08-02T07:34:31.982Z,776
2017-08-02T07:35:31.695Z,796
2017-08-02T07:36:31.103Z,776
2017-08-02T07:37:31.759Z,772
2017-08-02T07:38:31.784Z,776
2017-08-02T07:39:31.826Z,784
2017-08-02T07:40:31.845Z,788
2017-08-02T07:41:31.878Z,796
2017-08-02T07:42:31.912Z,800
2017-08-02T07:43:31.312Z,796
2017-08-02T07:44:31.959Z,876
2017-08-02T07:45:32.323Z,972
2017-08-02T07:46:31.695Z,1132
2017-08-02T07:47:32.365Z,1240
2017-08-02T07:48:31.765Z,1056
2017-08-02T07:49:32.416Z,1216
2017-08-02T07:50:32.446Z,1868
2017-08-02T07:51:31.535Z,2128
2017-08-02T07:52:32.506Z,2180
2017-08-02T07:53:32.218Z,1288
2017-08-02T07:54:32.574Z,1024
2017-08-02T07:55:32.261Z,1292
2017-08-02T07:56:31.999Z,1320
2017-08-02T07:57:32.648Z,1292
2017-08-02T07:58:32.681Z,1312
2017-08-02T07:59:32.394Z,976
2017-08-02T08:00:32.715Z,896
2017-08-02T08:01:32.139Z,948
2017-08-02T08:02:32.481Z,1092
2017-08-02T08:03:32.502Z,1048
2017-08-02T08:04:32.534Z,976
2017-08-02T08:05:32.559Z,1008
2017-08-02T08:06:32.590Z,1064
2017-08-02T08:07:32.934Z,1324
2017-08-02T08:08:32.354Z,1588
2017-08-02T08:09:32.994Z,1336
2017-08-02T08:10:33.003Z,1340
2017-08-02T08:11:32.432Z,1352
2017-08-02T08:12:32.768Z,1308
2017-08-02T08:13:33.125Z,1160
2017-08-02T08:14:32.822Z,1304
2017-08-02T08:15:33.459Z,1240
2017-08-02T08:16:33.203Z,1116
2017-08-02T08:17:32.603Z,1064
2017-08-02T08:18:32.635Z,948
2017-08-02T08:19:32.971Z,976
2017-08-02T08:20:32.626Z,972
2017-08-02T08:21:32.712Z,956
2017-08-02T08:22:33.049Z,968
2017-08-02T08:23:33.088Z,964
2017-08-02T08:24:33.425Z,972
2017-08-02T08:25:33.706Z,968
2017-08-02T08:26:33.488Z,972
2017-08-02T08:27:33.216Z,976
2017-08-02T08:28:33.233Z,996
2017-08-02T08:29:32.955Z,996
2017-08-02T08:30:33.901Z,988
2017-08-02T08:31:33.347Z,988
2017-08-02T08:32:33.660Z,992
2017-08-02T08:33:33.382Z,912
2017-08-02T08:34:33.409Z,1000
2017-08-02T08:35:33.995Z,1008
2017-08-02T08:36:33.160Z,1020
2017-08-02T08:37:32.873Z,1024
2017-08-02T08:38:32.906Z,1044
2017-08-02T08:39:33.238Z,1140
2017-08-02T08:40:33.875Z,1528
2017-08-02T08:41:33.925Z,2116
2017-08-02T08:42:33.941Z,1612
2017-08-02T08:43:33.354Z,1620
2017-08-02T08:44:33.695Z,1828
2017-08-02T08:45:33.725Z,1572
2017-08-02T08:46:33.442Z,1224
2017-08-02T08:47:33.787Z,1248
2017-08-02T08:48:33.186Z,1248
2017-08-02T08:49:33.839Z,1384
2017-08-02T08:50:34.119Z,1268
2017-08-02T08:51:33.582Z,1540
2017-08-02T08:52:33.305Z,1808
2017-08-02T08:53:33.647Z,1700
2017-08-02T08:54:33.358Z,1552
2017-08-02T08:55:33.724Z,1236
2017-08-02T08:56:34.355Z,1344
2017-08-02T08:57:33.756Z,1272
2017-08-02T08:58:34.102Z,1392
2017-08-02T08:59:34.443Z,1324
2017-08-02T09:00:34.768Z,1320
2017-08-02T09:01:34.501Z,1288
2017-08-02T09:02:34.541Z,1320
2017-08-02T09:03:34.262Z,1356
2017-08-02T09:04:34.273Z,1484
2017-08-02T09:05:34.583Z,1500
2017-08-02T09:06:34.356Z,1568
2017-08-02T09:07:34.366Z,1668
2017-08-02T09:08:34.709Z,1540
2017-08-02T09:09:34.427Z,1648
2017-08-02T09:10:34.745Z,1860
2017-08-02T09:11:34.491Z,1928
2017-08-02T09:12:34.834Z,1996
2017-08-02T09:13:34.234Z,2052
2017-08-02T09:14:34.566Z,2128
2017-08-02T09:15:35.231Z,2108
2017-08-02T09:16:34.002Z,1960
2017-08-02T09:17:34.982Z,2148
2017-08-02T09:18:34.697Z,2128
2017-08-02T09:19:35.026Z,2096
2017-08-02T09:20:35.063Z,2056
2017-08-02T09:21:34.789Z,2084
2017-08-02T09:22:34.190Z,2008
2017-08-02T09:23:34.839Z,1876
2017-08-02T09:24:34.872Z,1768
2017-08-02T09:25:34.899Z,1796
2017-08-02T09:26:34.929Z,1708
2017-08-02T09:27:35.264Z,1552
2017-08-02T09:28:34.671Z,1312
2017-08-02T09:29:35.319Z,1180
2017-08-02T09:30:34.735Z,1284
2017-08-02T09:31:34.756Z,1364
2017-08-02T09:32:35.105Z,1340
2017-08-02T09:33:35.126Z,1352
2017-08-02T09:34:35.466Z,1360
2017-08-02T09:35:35.497Z,1380
2017-08-02T09:36:35.532Z,1364
2017-08-02T09:37:35.241Z,1336
2017-08-02T09:38:35.275Z,1360
2017-08-02T09:39:35.300Z,1376
2017-08-02T09:40:35.645Z,1416
2017-08-02T09:41:35.674Z,1476
2017-08-02T09:42:35.096Z,1592
2017-08-02T09:43:35.107Z,1656
2017-08-02T09:44:35.459Z,1624
2017-08-02T09:45:35.177Z,1644
2017-08-02T09:46:36.115Z,1676
2017-08-02T09:47:35.214Z,1552
2017-08-02T09:48:35.572Z,1748
2017-08-02T09:49:35.596Z,2260
2017-08-02T09:50:35.936Z,2876
2017-08-02T09:51:35.597Z,3504
2017-08-02T09:52:35.999Z,3504
2017-08-02T09:53:35.727Z,3812
2017-08-02T09:54:36.060Z,4536
2017-08-02T09:55:35.776Z,5096
2017-08-02T09:56:35.797Z,5796
2017-08-02T09:57:36.147Z,6084
2017-08-02T09:58:36.171Z,6532
2017-08-02T09:59:35.891Z,6760
2017-08-02T10:00:35.607Z,7084
2017-08-02T10:01:36.261Z,6968
2017-08-02T10:02:36.298Z,6992
2017-08-02T10:03:36.026Z,6644
2017-08-02T10:04:35.732Z,6412
2017-08-02T10:05:36.381Z,6392
2017-08-02T10:06:35.777Z,6256
2017-08-02T10:07:36.134Z,6084
2017-08-02T10:08:35.851Z,6024
2017-08-02T10:09:36.180Z,6108
2017-08-02T10:10:35.901Z,5588
2017-08-02T10:11:36.544Z,5392
2017-08-02T10:12:36.279Z,5572
2017-08-02T10:13:36.620Z,5612
2017-08-02T10:14:36.031Z,5904
2017-08-02T10:15:36.680Z,6528
2017-08-02T10:16:36.656Z,7240
2017-08-02T10:17:36.439Z,7484
2017-08-02T10:18:36.767Z,6840
2017-08-02T10:19:36.788Z,7040
2017-08-02T10:20:36.832Z,7096
2017-08-02T10:21:36.846Z,6892
2017-08-02T10:22:36.887Z,6828
2017-08-02T10:23:36.919Z,7160
2017-08-02T10:24:36.324Z,7092
2017-08-02T10:25:36.989Z,6928
2017-08-02T10:26:36.993Z,6424
2017-08-02T10:27:36.735Z,6120
2017-08-02T10:28:36.748Z,6616
2017-08-02T10:29:36.798Z,6864
2017-08-02T10:30:37.146Z,6864
2017-08-02T10:31:37.143Z,6796
2017-08-02T10:32:36.880Z,6668
2017-08-02T10:33:36.582Z,6428
2017-08-02T10:34:37.256Z,6688
2017-08-02T10:35:36.653Z,7372
2017-08-02T10:36:37.296Z,8228
2017-08-02T10:37:37.018Z,8368
2017-08-02T10:38:37.047Z,7556
2017-08-02T10:39:37.085Z,6940
2017-08-02T10:40:37.124Z,6712
2017-08-02T10:41:37.446Z,6524
2017-08-02T10:42:36.858Z,6324
2017-08-02T10:43:37.213Z,6340
2017-08-02T10:44:36.925Z,6644
2017-08-02T10:45:37.258Z,7384
2017-08-02T10:46:37.598Z,7672
2017-08-02T10:47:37.331Z,7244
2017-08-02T10:48:37.352Z,7376
2017-08-02T10:49:37.385Z,7776
2017-08-02T10:50:37.428Z,7448
2017-08-02T10:51:38.002Z,6984
2017-08-02T10:52:37.470Z,6412
2017-08-02T10:53:37.508Z,5736
2017-08-02T10:54:37.526Z,5424
2017-08-02T10:55:37.870Z,5740
2017-08-02T10:56:37.530Z,6292
2017-08-02T10:57:37.308Z,6732
2017-08-02T10:58:37.649Z,7244
2017-08-02T10:59:37.693Z,7892
2017-08-02T11:00:37.729Z,7748
2017-08-02T11:01:38.049Z,7104
2017-08-02T11:02:38.080Z,6288
2017-08-02T11:03:37.806Z,6932
2017-08-02T11:04:37.837Z,8288
2017-08-02T11:05:37.546Z,9156
2017-08-02T11:06:38.163Z,9848
2017-08-02T11:07:38.236Z,10248
2017-08-02T11:08:37.958Z,10100
2017-08-02T11:09:37.980Z,10136
2017-08-02T11:10:38.333Z,10772
2017-08-02T11:11:37.728Z,10596
2017-08-02T11:12:38.387Z,10812
2017-08-02T11:13:38.097Z,11200
2017-08-02T11:14:37.817Z,11064
2017-08-02T11:15:37.857Z,10240
2017-08-02T11:16:37.570Z,8716
2017-08-02T11:17:38.208Z,7960
2017-08-02T11:18:38.257Z,7732
2017-08-02T11:19:38.298Z,8056
2017-08-02T11:20:38.622Z,8396
2017-08-02T11:21:38.662Z,8092
2017-08-02T11:22:38.620Z,7248
2017-08-02T11:23:38.725Z,6672
2017-08-02T11:24:38.125Z,6440
2017-08-02T11:25:38.777Z,5612
2017-08-02T11:26:38.188Z,5136
2017-08-02T11:27:39.094Z,5244
2017-08-02T11:28:38.869Z,5384
2017-08-02T11:29:38.585Z,5716
2017-08-02T11:30:38.618Z,6224
2017-08-02T11:31:38.335Z,6776
2017-08-02T11:32:38.979Z,7332
2017-08-02T11:33:38.409Z,7540
2017-08-02T11:34:38.772Z,7308
2017-08-02T11:35:38.768Z,7348
2017-08-02T11:36:39.102Z,7572
2017-08-02T11:37:38.504Z,7748
2017-08-02T11:38:38.865Z,7780
2017-08-02T11:39:38.586Z,7596
2017-08-02T11:40:38.922Z,7552
2017-08-02T11:41:38.971Z,7588
2017-08-02T11:42:38.969Z,7680
2017-08-02T11:43:39.017Z,7868
2017-08-02T11:44:38.416Z,8504
2017-08-02T11:45:38.759Z,9000
2017-08-02T11:46:39.102Z,9924
2017-08-02T11:47:39.120Z,9412
2017-08-02T11:48:39.486Z,10168
2017-08-02T11:49:39.198Z,14104
2017-08-02T11:50:39.541Z,10840
2017-08-02T11:51:39.586Z,13716
2017-08-02T11:52:39.621Z,12852
2017-08-02T11:53:39.313Z,13636
2017-08-02T11:54:39.030Z,12016
2017-08-02T11:55:39.063Z,15172
2017-08-02T11:56:39.103Z,26400
2017-08-02T11:57:39.749Z,24896
2017-08-02T11:58:39.462Z,29216
2017-08-02T11:59:39.508Z,26016
2017-08-02T12:00:39.850Z,35488
2017-08-02T12:01:39.876Z,33792
2017-08-02T12:02:39.583Z,45952
2017-08-02T12:03:39.627Z,14664
2017-08-02T12:04:39.352Z,14716
2017-08-02T12:05:39.992Z,14104
2017-08-02T12:06:40.020Z,11940
2017-08-02T12:07:40.053Z,11612
2017-08-02T12:08:39.786Z,20928
2017-08-02T12:09:39.518Z,11476
2017-08-02T12:10:40.152Z,10520
2017-08-02T12:11:39.877Z,15504
2017-08-02T12:12:40.469Z,32224
2017-08-02T12:13:40.253Z,29792
2017-08-02T12:14:39.663Z,59648
2017-08-02T12:15:39.380Z,40448
2017-08-02T12:16:39.724Z,10076
2017-08-02T12:17:40.669Z,60992
2017-08-02T12:18:40.398Z,49984
2017-08-02T12:19:40.124Z,8524
2017-08-02T12:20:40.156Z,23104
2017-08-02T12:21:40.182Z,9716
2017-08-02T12:22:40.512Z,10496
2017-08-02T12:23:39.942Z,56224
2017-08-02T12:24:40.279Z,28896
2017-08-02T12:25:40.623Z,13832
2017-08-02T12:26:40.334Z,10340
2017-08-02T12:27:40.672Z,10524
2017-08-02T12:28:40.410Z,6476
2017-08-02T12:29:40.122Z,6076
2017-08-02T12:30:40.466Z,7756
2017-08-02T12:31:40.505Z,8076
2017-08-02T12:32:41.145Z,80000
2017-08-02T12:33:40.574Z,75872
2017-08-02T12:34:40.286Z,73760
2017-08-02T12:35:40.630Z,27232
2017-08-02T12:36:40.653Z,45312
2017-08-02T12:37:40.702Z,53120
2017-08-02T12:38:40.718Z,76512
2017-08-02T12:39:40.447Z,71392
2017-08-02T12:40:41.095Z,50272
2017-08-02T12:41:40.825Z,73088
2017-08-02T12:42:40.850Z,68384
2017-08-02T12:43:41.182Z,13876
2017-08-02T12:44:41.223Z,24832
2017-08-02T12:45:40.632Z,19968
2017-08-02T12:46:40.989Z,17764
2017-08-02T12:47:40.701Z,27648
2017-08-02T12:48:41.041Z,25856
2017-08-02T12:49:41.387Z,23776
2017-08-02T12:50:41.105Z,55008
2017-08-02T12:51:40.838Z,58272
2017-08-02T12:52:40.541Z,14800
2017-08-02T12:53:41.816Z,7984
2017-08-02T12:54:41.547Z,20672
2017-08-02T12:55:41.263Z,56448
2017-08-02T12:56:41.609Z,59136
2017-08-02T12:57:41.337Z,55232
2017-08-02T12:58:41.983Z,52896
2017-08-02T12:59:41.394Z,36384
2017-08-02T13:00:41.112Z,32576
2017-08-02T13:01:41.798Z,48000
2017-08-02T13:02:41.494Z,43392
2017-08-02T13:03:41.823Z,41792
2017-08-02T13:04:41.579Z,45056
2017-08-02T13:05:41.914Z,48128
2017-08-02T13:06:41.314Z,49472
2017-08-02T13:07:41.970Z,42176
2017-08-02T13:08:41.987Z,40160
2017-08-02T13:09:41.718Z,31008
2017-08-02T13:10:41.765Z,43680
2017-08-02T13:11:42.112Z,42464
2017-08-02T13:12:41.856Z,44192
2017-08-02T13:13:42.155Z,16440
2017-08-02T13:14:41.896Z,9896
2017-08-02T13:15:41.922Z,8416
2017-08-02T13:16:41.653Z,7216
2017-08-02T13:17:41.686Z,30112
2017-08-02T13:18:42.319Z,33952
2017-08-02T13:19:42.361Z,37984
2017-08-02T13:20:41.461Z,32960
2017-08-02T13:21:42.116Z,31488
2017-08-02T13:22:42.151Z,10616
2017-08-02T13:23:42.476Z,44128
2017-08-02T13:24:42.244Z,48192
2017-08-02T13:25:42.245Z,9768
2017-08-02T13:26:42.287Z,6584
2017-08-02T13:27:42.628Z,10868
2017-08-02T13:28:42.291Z,22272
2017-08-02T13:29:42.376Z,41376
2017-08-02T13:30:42.725Z,44992
2017-08-02T13:31:42.468Z,19040
2017-08-02T13:32:42.479Z,17412
2017-08-02T13:33:42.463Z,23840
2017-08-02T13:34:42.558Z,55584
2017-08-02T13:35:42.890Z,68736
2017-08-02T13:36:42.918Z,67712
2017-08-02T13:37:42.327Z,58944
2017-08-02T13:38:42.930Z,60160
2017-08-02T13:39:43.052Z,42880
2017-08-02T13:40:42.438Z,51776
2017-08-02T13:41:42.786Z,59296
2017-08-02T13:42:42.495Z,69920
2017-08-02T13:43:43.088Z,62656
2017-08-02T13:44:43.171Z,51392
2017-08-02T13:45:42.910Z,37120